Time;durP1;ratioP1;P1;durP2;ratioP2;P2;SDS_P1;SDS_P2;PMS_P1;PMS_P2;Temp;Humidity;BMP_temperature;BMP_pressure;BME280_temperature;BME280_humidity;BME280_pressure;Samples;Min_cycle;Max_cycle;Signal;HPM_P1;HPM_P2
2022/06/23 00:00:55;;;;;;;15.13;12.15;;;;;;;26.00;49.47;98978.94;5010671;28;20018;-83
2022/06/23 00:03:22;;;;;;;14.02;11.18;;;;;;;26.31;49.56;99036.16;5011848;28;20097;-83
2022/06/23 00:05:54;;;;;;;15.38;10.93;;;;;;;25.98;49.40;98995.47;5010223;28;20137;-83
2022/06/23 00:08:21;;;;;;;16.27;11.70;;;;;;;26.24;49.61;99027.59;5011552;28;20050;-83
2022/06/23 00:10:56;;;;;;;16.10;11.63;;;;;;;26.07;49.83;99006.47;5010164;28;20116;-83
2022/06/23 00:13:33;;;;;;;16.60;11.90;;;;;;;26.19;49.56;99019.56;5010395;28;20115;-83
2022/06/23 00:15:59;;;;;;;12.75;11.45;;;;;;;25.68;49.88;98976.97;5010276;28;20435;-84
2022/06/23 00:18:30;;;;;;;15.20;11.30;;;;;;;25.82;49.92;98983.25;5010517;28;20029;-83
2022/06/23 00:20:59;;;;;;;;;;;;;;;25.90;50.66;99025.88;5010710;28;20026;-83
2022/06/23 00:23:38;;;;;;;13.70;10.60;;;;;;;25.72;49.99;98969.06;5011605;28;19948;-83
2022/06/23 00:26:14;;;;;;;14.82;10.88;;;;;;;26.11;50.12;99029.13;5011444;28;20022;-83
2022/06/23 00:29:00;;;;;;;14.00;10.82;;;;;;;25.83;50.04;98982.16;5011261;28;20037;-83
2022/06/23 00:31:41;;;;;;;17.92;10.70;;;;;;;25.97;50.23;99004.69;5011577;28;20443;-83
2022/06/23 00:34:37;;;;;;;13.98;10.88;;;;;;;26.04;50.17;99028.69;5010319;28;20124;-83
2022/06/23 00:37:11;;;;;;;17.73;11.60;;;;;;;25.37;50.20;98919.75;5009376;28;20030;-83
2022/06/23 00:39:55;;;;;;;15.60;11.40;;;;;;;25.46;50.32;98941.53;5011164;28;20030;-83
2022/06/23 00:42:32;;;;;;;18.60;11.68;;;;;;;26.11;50.26;99033.75;5011469;28;20083;-83
2022/06/23 00:45:09;;;;;;;13.25;10.85;;;;;;;26.16;49.86;99034.47;5009925;28;20384;-83
2022/06/23 00:47:50;;;;;;;17.20;11.10;;;;;;;26.16;49.75;99030.97;5012359;28;20026;-83
2022/06/23 00:50:31;;;;;;;15.30;11.10;;;;;;;26.15;50.13;99029.34;5013666;28;20080;-82
2022/06/23 00:53:23;;;;;;;13.40;10.60;;;;;;;26.13;50.12;99026.13;5014044;28;20036;-83
2022/06/23 00:55:51;;;;;;;14.73;11.57;;;;;;;26.00;49.95;98994.38;5014963;28;20048;-83
2022/06/23 00:58:35;;;;;;;15.23;10.77;;;;;;;26.17;50.10;99019.03;5014865;28;20030;-83
2022/06/23 01:01:18;;;;;;;13.30;11.18;;;;;;;25.71;49.91;98948.53;5014787;28;20029;-83
2022/06/23 01:03:57;;;;;;;12.30;10.60;;;;;;;25.94;49.98;98977.41;5013447;28;20498;-83
2022/06/23 01:06:39;;;;;;;15.60;11.32;;;;;;;26.22;49.79;99006.25;5014728;28;20046;-83
2022/06/23 01:09:22;;;;;;;13.32;10.45;;;;;;;26.22;50.08;99003.53;5014834;28;20034;-83
2022/06/23 01:12:06;;;;;;;16.88;11.18;;;;;;;25.58;49.74;98906.78;5014617;28;20026;-83
2022/06/23 01:14:53;;;;;;;13.68;10.45;;;;;;;26.15;50.03;99018.53;5014475;28;20081;-83
2022/06/23 01:17:31;;;;;;;18.40;11.15;;;;;;;25.58;49.53;98926.50;5013175;28;20444;-83
2022/06/23 01:20:29;;;;;;;17.42;10.40;;;;;;;25.91;49.50;98975.28;5014469;28;20498;-83
2022/06/23 01:23:45;;;;;;;17.30;9.95;;;;;;;25.86;49.53;98973.47;5013028;28;20030;-83
2022/06/23 01:26:48;;;;;;;15.60;10.05;;;;;;;26.08;48.88;99009.97;4996961;28;20061;-83
2022/06/23 01:29:28;;;;;;;15.23;10.13;;;;;;;25.74;48.90;98958.78;5014217;28;20104;-84
2022/06/23 01:32:08;;;;;;;15.38;9.43;;;;;;;26.10;49.06;99007.78;5012993;28;20055;-84
2022/06/23 01:34:38;;;;;;;12.10;8.95;;;;;;;26.07;49.13;99006.47;5014209;28;20040;-84
2022/06/23 01:37:25;;;;;;;12.10;9.02;;;;;;;26.06;48.79;99009.47;5012889;28;20025;-84
2022/06/23 01:40:23;;;;;;;17.92;9.35;;;;;;;26.05;48.64;99007.84;5014066;28;20041;-85
2022/06/23 01:42:58;;;;;;;13.18;9.00;;;;;;;26.06;48.39;99006.75;5013596;28;20046;-84
2022/06/23 01:45:34;;;;;;;12.05;9.00;;;;;;;25.80;48.31;98980.03;5013730;28;20400;-84
2022/06/23 01:48:05;;;;;;;14.32;9.00;;;;;;;26.03;48.08;99018.16;5012390;28;20022;-84
2022/06/23 01:50:48;;;;;;;14.80;9.48;;;;;;;25.99;48.09;99023.31;5014087;28;20030;-84
2022/06/23 01:53:27;;;;;;;13.85;8.35;;;;;;;25.39;47.61;98960.81;5012604;28;20415;-84
2022/06/23 01:56:06;;;;;;;13.45;8.77;;;;;;;25.28;47.45;98941.22;5013641;28;20396;-84
2022/06/23 01:58:53;;;;;;;11.88;7.95;;;;;;;25.60;47.40;99007.31;5013703;28;20096;-84
2022/06/23 02:01:45;;;;;;;13.38;8.98;;;;;;;25.28;47.62;98962.03;5013793;28;20029;-84
2022/06/23 02:04:36;;;;;;;14.13;8.10;;;;;;;25.83;47.17;99021.94;5010674;28;20034;-84
2022/06/23 02:07:14;;;;;;;14.23;7.80;;;;;;;25.45;47.14;98988.59;5013720;28;20084;-84
2022/06/23 02:09:44;;;;;;;9.07;6.88;;;;;;;25.23;47.10;98926.94;5013748;28;20053;-84
2022/06/23 02:12:28;;;;;;;13.90;7.97;;;;;;;25.41;46.86;98955.91;5012408;28;20411;-84
2022/06/23 02:15:24;;;;;;;13.85;8.70;;;;;;;25.38;47.04;98978.13;5012004;28;20030;-84
2022/06/23 02:17:53;;;;;;;15.73;7.95;;;;;;;25.73;47.52;99028.28;5009547;28;20049;-84
2022/06/23 02:20:50;;;;;;;11.80;8.30;;;;;;;25.73;47.26;99025.56;5013354;28;20037;-84
2022/06/23 02:23:21;;;;;;;12.75;8.25;;;;;;;25.71;47.35;99027.75;5011937;28;20434;-84
2022/06/23 02:25:49;;;;;;;;;;;;;;;25.50;47.56;99027.16;5012235;28;20030;-84
2022/06/23 02:28:41;;;;;;;11.20;8.07;;;;;;;25.61;47.25;99017.84;5011727;28;20283;-84
2022/06/23 02:31:21;;;;;;;13.45;7.28;;;;;;;25.40;47.45;98975.94;5013011;28;20084;-84
2022/06/23 02:33:57;;;;;;;14.25;8.02;;;;;;;25.27;47.12;98955.81;5014175;28;20034;-83
2022/06/23 02:36:38;;;;;;;12.35;7.50;;;;;;;25.67;46.88;99017.81;5012956;28;20026;-84
2022/06/23 02:39:13;;;;;;;14.40;7.85;;;;;;;25.10;46.98;98952.75;5012790;28;20040;-84
2022/06/23 02:41:52;;;;;;;15.82;7.88;;;;;;;25.52;46.71;99010.66;5012520;28;20495;-84
2022/06/23 02:44:33;;;;;;;14.35;7.25;;;;;;;25.62;46.84;99019.44;5011336;28;20041;-84
2022/06/23 02:47:11;;;;;;;12.40;7.70;;;;;;;25.61;46.52;99020.53;5011119;28;20026;-84
2022/06/23 02:49:55;;;;;;;9.05;6.55;;;;;;;24.99;46.27;98940.44;5011380;28;20489;-84
2022/06/23 02:52:51;;;;;;;13.13;7.10;;;;;;;24.55;46.01;98865.84;5011249;28;20080;-84
2022/06/23 02:55:27;;;;;;;11.40;6.82;;;;;;;25.25;46.41;99017.44;5011139;28;20026;-84
2022/06/23 02:57:58;;;;;;;10.73;6.63;;;;;;;25.03;46.05;98953.09;5012507;28;20033;-83
2022/06/23 03:00:42;;;;;;;10.32;6.25;;;;;;;25.04;45.64;98948.50;5012340;28;20026;-84
2022/06/23 03:03:37;;;;;;;9.63;6.82;;;;;;;25.58;45.74;99036.53;5012257;28;20018;-84
2022/06/23 03:06:29;;;;;;;10.43;6.85;;;;;;;25.56;45.40;99036.03;5010968;28;20042;-85
2022/06/23 03:09:28;;;;;;;11.27;6.90;;;;;;;25.38;45.46;99015.16;5012151;28;20084;-85
2022/06/23 03:12:02;;;;;;;11.23;6.07;;;;;;;24.93;45.83;98928.88;5008325;28;20510;-85
2022/06/23 03:14:47;;;;;;;12.23;6.72;;;;;;;25.63;45.02;99036.47;5012010;28;20021;-85
2022/06/23 03:17:13;;;;;;;11.63;6.72;;;;;;;25.67;44.95;99034.03;5012042;28;20108;-85
2022/06/23 03:19:44;;;;;;;8.65;5.97;;;;;;;25.19;45.28;98967.25;5010660;28;20116;-85
2022/06/23 03:22:18;;;;;;;16.10;7.47;;;;;;;25.65;45.71;99027.00;5012198;28;20127;-84
2022/06/23 03:25:02;;;;;;;10.25;6.63;;;;;;;25.11;45.82;98967.88;5011043;28;20032;-84
2022/06/23 03:27:32;;;;;;;10.63;7.47;;;;;;;25.34;46.08;98988.72;5012109;28;20030;-84
2022/06/23 03:30:14;;;;;;;15.23;6.85;;;;;;;25.51;45.90;99020.66;5012080;28;20025;-85
2022/06/23 03:32:46;;;;;;;10.10;6.40;;;;;;;24.96;45.92;98932.88;5010863;28;20025;-83
2022/06/23 03:35:29;;;;;;;10.82;6.63;;;;;;;24.88;45.77;98925.41;5012210;28;20026;-84
2022/06/23 03:38:13;;;;;;;14.07;7.85;;;;;;;25.46;46.55;99028.84;5012502;28;20040;-83
2022/06/23 03:43:33;;;;;;;15.95;11.77;;;;;;;25.29;48.33;99017.69;5012199;28;20116;-85
2022/06/23 03:46:17;;;;;;;13.40;10.20;;;;;;;25.18;49.19;99027.75;5011776;28;20104;-84
2022/06/23 03:48:51;;;;;;;14.55;11.18;;;;;;;24.86;49.10;99006.72;5010490;28;20026;-85
2022/06/23 03:51:31;;;;;;;18.00;10.32;;;;;;;25.04;49.63;99037.63;5010539;28;20093;-84
2022/06/23 03:54:04;;;;;;;13.73;11.15;;;;;;;24.84;49.74;99021.59;5011995;28;20526;-84
2022/06/23 03:56:37;;;;;;;13.02;10.88;;;;;;;24.98;50.01;99038.78;5010496;28;20029;-84
2022/06/23 03:59:13;;;;;;;13.13;11.27;;;;;;;24.99;49.97;99048.50;5010592;28;20487;-84
2022/06/23 04:01:59;;;;;;;14.77;11.30;;;;;;;25.03;49.92;99058.44;5011512;28;20037;-84
2022/06/23 04:05:08;;;;;;;16.35;12.45;;;;;;;25.06;50.41;99057.06;5011572;28;20050;-85
2022/06/23 04:07:49;;;;;;;13.90;10.43;;;;;;;24.80;50.16;99028.66;5010377;28;20032;-84
2022/06/23 04:10:27;;;;;;;14.52;10.88;;;;;;;24.79;50.18;99019.75;5011338;28;20036;-84
2022/06/23 04:12:57;;;;;;;12.10;9.70;;;;;;;25.07;49.71;99053.28;5011300;28;20045;-84
2022/06/23 04:15:37;;;;;;;12.82;9.85;;;;;;;24.79;49.95;98995.44;5011645;28;20038;-84
2022/06/23 04:18:16;;;;;;;16.58;11.38;;;;;;;25.39;49.47;99081.63;5010361;28;20044;-84
2022/06/23 04:20:53;;;;;;;17.90;11.18;;;;;;;25.46;49.67;99072.09;5010329;28;20038;-84
2022/06/23 04:23:32;;;;;;;16.65;10.93;;;;;;;25.41;49.84;99082.94;5014049;28;20486;-84
2022/06/23 04:25:57;;;;;;;18.80;12.25;;;;;;;25.34;49.90;99086.00;5015628;28;20021;-84
2022/06/23 04:28:57;;;;;;;16.80;11.32;;;;;;;24.93;50.35;99046.91;5014036;28;20399;-84
2022/06/23 04:31:28;;;;;;;16.27;11.07;;;;;;;25.19;50.29;99088.00;5005510;28;20095;-84
2022/06/23 04:33:54;;;;;;;17.42;10.77;;;;;;;24.06;51.07;98923.41;5014210;28;20029;-84
2022/06/23 04:36:43;;;;;;;16.58;11.45;;;;;;;25.03;51.34;99088.16;5015508;28;20033;-85
2022/06/23 04:39:25;;;;;;;18.90;12.70;;;;;;;24.57;51.60;99030.19;5013878;28;20064;-85
2022/06/23 04:41:59;;;;;;;16.08;12.48;;;;;;;24.97;51.63;99099.25;5014959;28;20022;-84
2022/06/23 04:44:33;;;;;;;18.45;13.25;;;;;;;24.82;51.59;99077.78;5015111;28;20053;-85
2022/06/23 04:47:07;;;;;;;18.15;12.80;;;;;;;24.91;52.06;99092.28;5015049;28;20410;-84
2022/06/23 04:49:38;;;;;;;19.42;12.93;;;;;;;24.39;52.07;98989.28;5015199;28;20399;-84
2022/06/23 04:52:12;;;;;;;18.60;13.32;;;;;;;24.56;51.89;98998.88;5013799;28;20040;-84
2022/06/23 04:55:15;;;;;;;21.23;13.30;;;;;;;24.98;52.24;99057.69;5013421;28;20029;-84
2022/06/23 04:57:56;;;;;;;16.45;12.50;;;;;;;24.90;51.71;99042.88;5013293;28;20034;-84
2022/06/23 05:00:36;;;;;;;17.27;12.65;;;;;;;24.88;51.21;99020.75;5013099;28;20061;-84
2022/06/23 05:03:14;;;;;;;16.92;12.15;;;;;;;25.34;51.58;99086.00;5014516;28;20419;-84
2022/06/23 05:05:40;;;;;;;19.90;12.00;;;;;;;24.69;51.28;98996.34;5014437;28;20124;-84
2022/06/23 05:08:15;;;;;;;17.33;12.48;;;;;;;24.95;50.88;99023.91;5014440;28;20026;-84
2022/06/23 05:10:51;;;;;;;14.65;11.27;;;;;;;24.13;50.53;98908.78;5013135;28;20030;-83
2022/06/23 05:13:29;;;;;;;16.02;11.75;;;;;;;25.29;50.36;99047.41;5014572;28;20017;-84
2022/06/23 05:16:09;;;;;;;17.27;11.50;;;;;;;23.64;50.43;98774.91;5014116;28;20076;-84
2022/06/23 05:18:44;;;;;;;18.48;12.27;;;;;;;25.55;49.84;99064.97;5014109;28;20569;-84
2022/06/23 05:21:17;;;;;;;17.50;11.65;;;;;;;25.12;49.55;99001.09;5014525;28;20410;-84
2022/06/23 05:23:49;;;;;;;19.67;12.05;;;;;;;25.82;49.08;99102.25;5012944;28;20411;-84
2022/06/23 05:26:30;;;;;;;15.35;10.88;;;;;;;25.78;48.98;99093.09;5013853;28;20506;-83
2022/06/23 05:29:20;;;;;;;17.73;10.43;;;;;;;25.88;48.35;99103.00;5014087;28;20018;-83
2022/06/23 05:31:48;;;;;;;14.35;10.30;;;;;;;25.89;48.17;99101.91;4997350;28;20064;-84
2022/06/23 05:34:18;;;;;;;15.38;9.45;;;;;;;25.02;48.03;98948.78;5013706;28;20100;-83
2022/06/23 05:37:04;;;;;;;13.25;9.18;;;;;;;25.69;48.15;99054.28;5014319;28;20025;-83
2022/06/23 05:39:46;;;;;;;17.48;8.20;;;;;;;25.53;47.44;99033.91;5012536;28;20432;-83
2022/06/23 05:42:26;;;;;;;8.57;7.68;;;;;;;25.74;46.83;99058.81;5012006;28;20030;-83
2022/06/23 05:45:01;;;;;;;49.53;37.70;;;;;;;26.15;46.64;99126.78;5023087;28;20434;-83
2022/06/23 05:47:30;;;;;;;86.15;63.03;;;;;;;25.72;46.20;99051.00;5016140;28;20056;-82
2022/06/23 05:50:00;;;;;;;70.55;52.42;;;;;;;26.24;45.88;99116.91;5021621;28;20025;-82
2022/06/23 05:52:33;;;;;;;36.28;28.35;;;;;;;25.72;45.87;99044.78;5017756;28;20037;-82
2022/06/23 05:55:15;;;;;;;27.10;15.60;;;;;;;26.08;45.09;99083.84;5012116;28;20025;-84
2022/06/23 05:58:01;;;;;;;15.52;12.73;;;;;;;26.21;45.52;99109.38;5024534;28;20029;-83
2022/06/23 06:00:44;;;;;;;16.45;12.50;;;;;;;26.42;45.56;99121.56;5021520;28;20041;-83
2022/06/23 06:03:25;;;;;;;17.33;14.85;;;;;;;26.47;45.40;99135.03;5020656;28;20028;-83
2022/06/23 06:05:56;;;;;;;20.50;13.18;;;;;;;26.48;44.93;99131.22;5026396;28;20045;-82
2022/06/23 06:09:35;;;;;;;16.98;12.45;;;;;;;26.55;44.59;99134.38;5026902;28;20114;-82
2022/06/23 06:11:20;;;;;;;16.63;11.35;;;;;;;26.58;44.66;99120.25;5013162;28;20097;-83
2022/06/23 06:13:46;;;;;;;16.25;10.55;;;;;;;25.83;44.58;98998.38;5013204;28;20032;-83
2022/06/23 06:16:12;;;;;;;15.48;9.50;;;;;;;26.40;44.54;99069.63;5012982;28;20582;-83
2022/06/23 06:18:41;;;;;;;11.02;8.90;;;;;;;26.38;44.67;99066.41;5017967;28;20507;-82
2022/06/23 06:21:11;;;;;;;15.90;10.55;;;;;;;26.20;44.34;99043.63;5013342;28;20053;-83
2022/06/23 06:23:37;;;;;;;15.02;9.15;;;;;;;26.83;44.31;99121.78;5011894;28;20032;-82
2022/06/23 06:26:04;;;;;;;16.23;9.05;;;;;;;26.85;43.74;99116.06;5013358;28;20096;-83
2022/06/23 06:28:32;;;;;;;12.15;8.43;;;;;;;26.68;43.26;99085.97;5017905;28;20033;-83
2022/06/23 06:31:35;;;;;;;15.13;8.68;;;;;;;26.82;43.56;99108.53;5012751;28;20018;-82
2022/06/23 06:34:30;;;;;;;12.50;7.63;;;;;;;26.85;43.60;99118.78;5012730;28;20056;-83
2022/06/23 06:36:55;;;;;;;18.52;12.38;;;;;;;26.83;42.68;99118.28;5020659;28;20116;-84
2022/06/23 06:39:33;;;;;;;12.32;7.68;;;;;;;26.98;42.03;99115.34;5021880;28;20105;-83
2022/06/23 06:42:08;;;;;;;16.05;8.10;;;;;;;25.97;41.27;98941.66;5028908;28;20036;-85
2022/06/23 06:44:39;;;;;;;14.90;8.32;;;;;;;26.82;40.91;99057.06;5014878;28;20045;-83
2022/06/23 06:47:05;;;;;;;;;;;;;;;26.94;41.42;99094.53;5017528;28;20028;-84
2022/06/23 06:49:32;;;;;;;13.02;7.93;;;;;;;26.98;40.79;99074.72;5015024;28;19913;-83
2022/06/23 06:51:58;;;;;;;10.55;8.70;;;;;;;27.26;41.16;99089.13;5012662;28;20053;-83
2022/06/23 06:54:31;;;;;;;15.07;9.95;;;;;;;26.54;40.66;98964.09;5025162;28;20518;-83
2022/06/23 06:57:01;;;;;;;10.02;6.90;;;;;;;27.29;39.72;99083.09;5028394;28;20050;-83
2022/06/23 06:59:39;;;;;;;9.38;6.75;;;;;;;27.41;39.11;99090.75;5012786;28;20585;-83
2022/06/23 07:02:24;;;;;;;13.50;6.40;;;;;;;27.41;39.15;99085.31;5018669;28;20038;-83
2022/06/23 07:05:01;;;;;;;10.63;7.88;;;;;;;27.49;39.24;99109.84;5015155;28;20483;-83
2022/06/23 07:07:34;;;;;;;14.32;9.18;;;;;;;27.19;38.89;99045.34;5025836;28;20021;-84
2022/06/23 07:10:07;;;;;;;7.95;4.93;;;;;;;27.38;37.76;99064.22;5027166;28;20022;-83
2022/06/23 07:12:44;;;;;;;10.60;5.95;;;;;;;26.86;37.76;98964.06;5038095;28;20057;-82
2022/06/23 07:15:22;;;;;;;8.40;7.05;;;;;;;27.82;38.33;99093.53;5029610;28;20030;-83
2022/06/23 07:17:56;;;;;;;8.10;6.00;;;;;;;27.88;38.18;99111.31;5025419;28;20073;-82
2022/06/23 07:20:40;;;;;;;10.30;7.28;;;;;;;27.96;38.26;99129.59;5020129;28;20447;-82
2022/06/23 07:23:15;;;;;;;5.97;4.90;;;;;;;27.40;37.61;99040.34;5010668;28;20418;-83
2022/06/23 07:25:46;;;;;;;7.07;5.45;;;;;;;27.65;37.39;99087.91;5009736;28;20029;-82
2022/06/23 07:28:34;;;;;;;8.70;4.70;;;;;;;28.22;37.00;99173.31;5011251;28;20030;-85
2022/06/23 07:31:25;;;;;;;9.05;5.10;;;;;;;28.35;36.74;99183.41;5013606;28;20029;-83
2022/06/23 07:34:11;;;;;;;6.05;4.45;;;;;;;28.38;36.16;99196.38;5011398;28;20555;-83
2022/06/23 07:36:43;;;;;;;9.23;4.93;;;;;;;28.39;36.27;99219.72;5010198;28;20041;-82
2022/06/23 07:39:20;;;;;;;6.32;4.28;;;;;;;28.12;35.63;99204.19;5010857;28;20033;-82
2022/06/23 07:42:07;;;;;;;6.82;4.13;;;;;;;28.22;35.80;99256.66;5019655;28;20503;-81
2022/06/23 07:44:42;;;;;;;9.07;4.95;;;;;;;28.12;36.17;99266.63;5026838;28;20025;-81
2022/06/23 07:47:08;;;;;;;9.52;4.10;;;;;;;27.52;35.99;99195.25;5030840;28;20022;-82
2022/06/23 07:49:34;;;;;;;6.03;3.88;;;;;;;27.70;35.86;99258.69;5029724;28;20121;-82
2022/06/23 07:52:01;;;;;;;6.22;4.38;;;;;;;27.95;35.78;99303.56;5030645;28;20124;-84
2022/06/23 07:54:28;;;;;;;7.85;4.40;;;;;;;27.45;35.64;99240.88;5031049;28;20029;-83
2022/06/23 07:56:54;;;;;;;8.77;4.35;;;;;;;27.31;35.43;99250.88;5030723;28;20026;-82
2022/06/23 07:59:28;;;;;;;9.27;3.60;;;;;;;27.91;34.55;99316.94;5031143;28;20506;-83
2022/06/23 08:02:16;;;;;;;10.43;3.03;;;;;;;27.88;34.46;99324.88;5031001;28;20017;-83
2022/06/23 08:05:08;;;;;;;5.97;3.60;;;;;;;27.93;34.11;99347.28;5030820;28;20116;-83
2022/06/23 08:07:35;;;;;;;7.95;3.78;;;;;;;27.46;34.36;99315.72;5030902;28;20030;-83
2022/06/23 08:10:18;;;;;;;5.85;3.47;;;;;;;27.48;34.08;99310.81;5029657;28;20025;-84
2022/06/23 08:13:07;;;;;;;9.73;3.90;;;;;;;27.58;32.69;99347.84;5030638;28;20044;-83
2022/06/23 08:18:40;;;;;;;8.98;3.72;;;;;;;27.58;34.06;99343.22;5031378;28;20152;-83
2022/06/23 08:21:19;;;;;;;9.93;4.25;;;;;;;27.33;33.48;99270.38;5031349;28;20033;-83
2022/06/23 08:23:54;;;;;;;10.05;4.32;;;;;;;27.58;34.21;99320.72;5038767;28;20029;-83
2022/06/23 08:26:22;;;;;;;13.93;5.05;;;;;;;27.11;34.75;99205.91;5030990;28;20017;-83
2022/06/23 08:28:52;;;;;;;12.02;4.53;;;;;;;26.87;35.13;99158.03;5029322;28;20563;-83
2022/06/23 08:31:18;;;;;;;14.35;4.80;;;;;;;26.90;35.45;99170.97;5030702;28;20021;-84
2022/06/23 08:33:44;;;;;;;10.85;4.47;;;;;;;26.66;36.29;99145.84;5029331;28;20518;-84
2022/06/23 08:36:14;;;;;;;12.85;5.80;;;;;;;26.97;36.67;99153.53;5030301;28;20025;-83
2022/06/23 08:38:46;;;;;;;9.18;3.78;;;;;;;27.05;36.72;99169.97;5011849;28;20026;-84
2022/06/23 08:41:24;;;;;;;11.02;4.28;;;;;;;26.29;36.78;99052.69;5009330;28;20054;-84
2022/06/23 08:44:28;;;;;;;9.30;3.83;;;;;;;26.85;37.21;99145.88;5010110;28;20582;-83
2022/06/23 08:47:06;;;;;;;10.43;3.55;;;;;;;26.80;37.94;99149.47;5023524;28;20195;-83
2022/06/23 08:49:50;;;;;;;6.80;3.63;;;;;;;26.81;38.90;99150.28;5025393;28;20029;-83
2022/06/23 08:52:39;;;;;;;9.48;3.65;;;;;;;26.95;39.34;99182.84;5011122;28;20029;-84
2022/06/23 08:55:08;;;;;;;5.55;3.83;;;;;;;27.00;39.76;99191.72;5026696;28;20028;-84
2022/06/23 08:57:42;;;;;;;9.32;4.25;;;;;;;26.60;39.45;99117.25;5027791;28;20467;-83
2022/06/23 09:00:16;;;;;;;10.18;4.28;;;;;;;26.92;39.26;99165.28;5029265;28;20022;-83
2022/06/23 09:02:48;;;;;;;10.07;3.40;;;;;;;27.04;39.11;99168.34;5021034;28;20021;-84
2022/06/23 09:05:37;;;;;;;8.43;3.88;;;;;;;27.00;40.08;99161.13;5011200;28;20048;-84
2022/06/23 09:08:33;;;;;;;11.43;4.28;;;;;;;26.93;41.43;99188.56;5011516;28;20021;-84
2022/06/23 09:11:04;;;;;;;10.55;4.40;;;;;;;26.80;42.15;99205.53;5029195;28;20041;-84
2022/06/23 09:13:54;;;;;;;7.32;3.70;;;;;;;26.72;43.30;99214.28;5028839;28;20020;-85
2022/06/23 09:16:23;;;;;;;6.88;3.55;;;;;;;26.64;43.97;99245.53;5027601;28;20022;-84
2022/06/23 09:19:13;;;;;;;11.45;4.20;;;;;;;26.53;44.59;99307.16;5014426;28;20378;-84
2022/06/23 09:22:02;;;;;;;12.25;7.68;;;;;;;26.40;44.57;99334.09;5020999;28;20109;-84
2022/06/23 09:24:52;;;;;;;9.90;5.32;;;;;;;26.30;44.94;99334.97;5014113;28;20014;-85
2022/06/23 09:27:29;;;;;;;9.02;4.05;;;;;;;26.17;45.66;99292.34;5013948;28;20022;-83
2022/06/23 09:30:06;;;;;;;15.88;5.53;;;;;;;26.04;46.89;99266.78;5019350;28;20064;-88
2022/06/23 09:32:54;;;;;;;15.98;5.50;;;;;;;25.48;48.28;99236.69;5031358;28;20641;-87
2022/06/23 09:35:57;;;;;;;10.07;5.97;;;;;;;25.78;48.83;99292.44;5024156;28;20025;-85
2022/06/23 09:38:40;;;;;;;11.95;5.90;;;;;;;25.61;50.68;99269.28;5016279;28;20034;-87
2022/06/23 09:41:27;;;;;;;14.90;6.22;;;;;;;25.43;50.36;99272.69;5032380;28;20128;-88
2022/06/23 09:44:36;;;;;;;13.75;6.97;;;;;;;25.29;51.66;99318.44;5033716;28;20029;-86
2022/06/23 09:47:34;;;;;;;11.65;6.60;;;;;;;25.19;50.87;99334.69;5032013;28;20031;-87
2022/06/23 09:50:26;;;;;;;15.15;6.55;;;;;;;25.15;51.52;99319.31;5032090;28;20474;-85
2022/06/23 09:53:08;;;;;;;9.45;5.80;;;;;;;24.89;52.77;99287.00;5034417;28;20064;-88
2022/06/23 09:55:44;;;;;;;10.50;5.90;;;;;;;24.10;54.45;99163.69;5032250;28;20104;-87
2022/06/23 09:58:57;;;;;;;11.32;7.68;;;;;;;24.91;52.75;99225.44;5032525;28;20395;-91
2022/06/23 10:01:37;;;;;;;13.50;9.80;;;;;;;24.02;52.57;99059.09;5022093;28;20053;-90
2022/06/23 10:04:49;;;;;;;17.38;10.07;;;;;;;24.34;55.46;99143.13;5032355;28;20037;-90
2022/06/23 10:07:18;;;;;;;12.93;7.68;;;;;;;24.56;55.55;99222.94;5015134;28;20120;-92
2022/06/23 10:10:04;;;;;;;14.55;8.20;;;;;;;23.92;56.86;99146.25;5032869;28;20513;-87
2022/06/23 10:12:29;;;;;;;11.80;7.78;;;;;;;24.56;55.36;99252.63;5022477;28;20419;-90
2022/06/23 10:15:22;;;;;;;11.82;8.38;;;;;;;24.55;55.50;99251.00;5032285;28;20036;-89
2022/06/23 10:18:25;;;;;;;14.18;10.50;;;;;;;24.56;55.84;99280.41;5033245;28;20060;-89
2022/06/23 10:21:05;;;;;;;10.55;7.38;;;;;;;23.79;55.64;99179.16;5036993;28;20032;-87
2022/06/23 10:23:37;;;;;;;6.55;5.70;;;;;;;24.53;55.05;99262.06;5036278;28;20548;-88
2022/06/23 10:26:32;;;;;;;8.13;6.35;;;;;;;24.29;55.57;99242.97;5033003;28;20029;-86
2022/06/23 10:29:31;;;;;;;10.85;6.70;;;;;;;24.47;55.89;99244.25;5027102;28;20509;-88
2022/06/23 10:32:14;;;;;;;7.32;4.82;;;;;;;24.49;54.88;99225.91;5019660;28;20418;-88
2022/06/23 10:35:02;;;;;;;9.32;5.85;;;;;;;24.23;56.15;99170.38;5035112;28;20044;-88
2022/06/23 10:37:47;;;;;;;8.27;5.18;;;;;;;24.54;55.24;99198.91;5031341;28;20418;-88
2022/06/23 10:41:00;;;;;;;8.60;6.18;;;;;;;24.47;56.77;99157.88;5031469;28;20029;-85
2022/06/23 10:43:28;;;;;;;9.18;5.22;;;;;;;24.76;54.30;99179.63;5013269;28;20438;-87
2022/06/23 10:46:04;;;;;;;8.93;5.22;;;;;;;24.24;54.86;99109.97;5011543;28;20036;-87
2022/06/23 10:49:17;;;;;;;10.18;6.25;;;;;;;24.64;54.54;99147.56;5032853;28;20025;-87
2022/06/23 10:52:24;;;;;;;9.32;6.50;;;;;;;25.17;54.13;99190.16;5010183;28;20034;-84
2022/06/23 10:55:22;;;;;;;8.77;4.95;;;;;;;25.58;53.68;99196.06;4952136;29;20031;-85
2022/06/23 10:57:50;;;;;;;6.68;5.00;;;;;;;25.82;51.72;99201.53;4971074;28;20121;-85
2022/06/23 11:00:22;;;;;;;8.63;4.80;;;;;;;25.63;50.42;99131.91;5009363;28;20120;-87
2022/06/23 11:03:03;;;;;;;7.65;4.82;;;;;;;26.21;50.16;99190.56;5023641;28;20029;-86
2022/06/23 11:05:40;;;;;;;8.20;5.63;;;;;;;26.59;49.90;99181.44;5030785;28;20128;-88
2022/06/23 11:08:24;;;;;;;7.93;5.65;;;;;;;27.15;48.63;99169.00;5012807;28;20125;-89
2022/06/23 11:11:25;;;;;;;8.13;4.70;;;;;;;27.34;45.76;99126.38;5031403;28;20025;-88
2022/06/23 11:14:06;;;;;;;9.07;4.87;;;;;;;28.05;46.46;99165.78;5022878;28;20042;-89
2022/06/23 11:16:39;;;;;;;7.80;4.53;;;;;;;27.97;43.84;99105.97;5016825;28;20293;-89
2022/06/23 11:19:47;;;;;;;5.93;4.50;;;;;;;28.73;43.88;99162.19;5012115;28;20430;-88
2022/06/23 11:22:33;;;;;;;5.70;4.18;;;;;;;29.21;42.93;99166.28;5024908;28;20048;-88
2022/06/23 11:25:34;;;;;;;10.68;5.10;;;;;;;29.44;40.76;99126.28;5019752;28;20036;-89
2022/06/23 11:28:07;;;;;;;8.02;4.68;;;;;;;29.81;40.88;99163.13;5029083;28;20021;-88
2022/06/23 11:31:04;;;;;;;9.55;4.53;;;;;;;30.16;39.45;99155.91;5012516;28;20041;-88
2022/06/23 11:33:43;;;;;;;7.97;5.55;;;;;;;30.49;39.55;99153.59;5022808;28;20064;-88
2022/06/23 11:36:19;;;;;;;8.00;4.30;;;;;;;30.56;38.40;99151.19;5031289;28;20061;-88
2022/06/23 11:39:07;;;;;;;8.23;4.50;;;;;;;30.71;37.84;99136.31;5037559;28;20040;-88
2022/06/23 11:41:33;;;;;;;7.45;4.80;;;;;;;30.91;37.65;99131.03;5040792;28;20116;-86
2022/06/23 11:44:16;;;;;;;6.90;4.93;;;;;;;31.17;37.88;99136.47;5022842;28;20109;-86
2022/06/23 11:47:04;;;;;;;6.18;3.90;;;;;;;31.26;35.44;99126.38;5011180;28;20022;-86
2022/06/23 11:49:39;;;;;;;7.28;5.63;;;;;;;31.46;35.45;99143.97;5026740;28;20061;-88
2022/06/23 11:52:28;;;;;;;8.48;5.93;;;;;;;31.50;36.04;99108.63;5023025;28;20107;-86
2022/06/23 11:54:56;;;;;;;8.77;5.75;;;;;;;31.91;35.21;99133.38;5046301;28;20034;-86
2022/06/23 11:58:13;;;;;;;9.82;7.57;;;;;;;31.74;35.38;99057.03;5028944;28;20124;-86
2022/06/23 12:01:07;;;;;;;8.40;5.03;;;;;;;32.49;34.22;99134.50;4992878;28;20026;-86
2022/06/23 12:04:00;;;;;;;9.50;4.63;;;;;;;32.69;34.30;99130.16;5016232;28;20641;-86
2022/06/23 12:06:45;;;;;;;8.80;6.05;;;;;;;32.82;34.43;99111.94;5009746;28;20434;-88
2022/06/23 12:09:14;;;;;;;9.30;5.47;;;;;;;32.96;33.86;99092.50;5011133;28;20100;-87
2022/06/23 12:11:39;;;;;;;8.80;5.32;;;;;;;32.36;33.44;98995.41;5029061;28;20030;-88
2022/06/23 12:14:07;;;;;;;8.57;5.32;;;;;;;32.68;33.36;99084.03;5030214;28;20040;-88
2022/06/23 12:16:38;;;;;;;8.15;5.15;;;;;;;32.32;33.78;99025.34;5046815;28;20112;-88
2022/06/23 12:19:10;;;;;;;8.95;5.85;;;;;;;32.73;33.63;99103.78;5046685;28;20048;-88
2022/06/23 12:21:54;;;;;;;8.52;6.00;;;;;;;32.51;33.73;99066.66;5045665;28;20029;-88
2022/06/23 12:24:29;;;;;;;8.13;6.68;;;;;;;32.58;34.36;99101.63;5030056;28;20033;-87
2022/06/23 12:27:16;;;;;;;8.40;6.32;;;;;;;32.64;34.75;99124.09;5046332;28;20025;-87
2022/06/23 12:30:12;;;;;;;10.88;7.05;;;;;;;32.41;35.00;99126.38;5044042;28;20041;-88
2022/06/23 12:32:51;;;;;;;8.13;6.53;;;;;;;32.21;35.94;99123.25;5037161;28;20042;-88